Time;durP1;ratioP1;P1;durP2;ratioP2;P2;SDS_P1;SDS_P2;PMS_P1;PMS_P2;Temp;Humidity;BMP_temperature;BMP_pressure;BME280_temperature;BME280_humidity;BME280_pressure;Samples;Min_cycle;Max_cycle;Signal;HPM_P1;HPM_P2
2021/06/05 00:02:17;;;;;;;44.23;33.30;;;16.10;99.90;;;;;;6300884;22;20179;-85
2021/06/05 00:04:43;;;;;;;43.20;32.40;;;16.10;99.90;;;;;;6298665;22;20196;-81
2021/06/05 00:07:09;;;;;;;44.00;34.67;;;16.10;99.90;;;;;;6296533;22;20648;-79
2021/06/05 00:09:36;;;;;;;44.00;31.93;;;16.10;99.90;;;;;;6297327;22;20176;-82
2021/06/05 00:12:02;;;;;;;45.80;30.87;;;16.10;99.90;;;;;;6301000;22;20470;-86
2021/06/05 00:14:29;;;;;;;47.07;32.30;;;16.10;99.90;;;;;;6298874;22;20203;-78
2021/06/05 00:16:55;;;;;;;43.23;30.07;;;16.00;99.90;;;;;;6299594;22;20168;-79
2021/06/05 00:19:22;;;;;;;42.90;29.50;;;16.00;99.90;;;;;;6301608;22;20694;-87
2021/06/05 00:21:49;;;;;;;45.90;31.03;;;16.00;99.90;;;;;;6301546;22;20176;-86
2021/06/05 00:24:17;;;;;;;39.97;28.43;;;15.90;99.90;;;;;;6301009;22;20172;-86
2021/06/05 00:26:43;;;;;;;38.20;27.40;;;15.90;99.90;;;;;;6300622;22;20530;-80
2021/06/05 00:29:10;;;;;;;42.30;28.00;;;15.90;99.90;;;;;;6297474;22;20172;-86
2021/06/05 00:31:36;;;;;;;39.97;27.00;;;15.90;99.90;;;;;;6299814;22;20172;-82
2021/06/05 00:34:04;;;;;;;42.53;25.57;;;15.90;99.90;;;;;;6300709;22;20180;-78
2021/06/05 00:36:32;;;;;;;41.37;24.53;;;15.80;99.90;;;;;;6299916;22;20172;-82
2021/06/05 00:38:59;;;;;;;38.83;24.37;;;15.70;99.90;;;;;;6299075;22;20658;-85
2021/06/05 00:41:27;;;;;;;35.43;22.13;;;15.70;99.90;;;;;;6298607;22;20168;-87
2021/06/05 00:43:56;;;;;;;34.63;21.73;;;15.60;99.90;;;;;;6302934;22;20196;-84
2021/06/05 00:46:24;;;;;;;35.80;22.20;;;15.60;99.90;;;;;;6301117;22;20188;-86
2021/06/05 00:48:51;;;;;;;34.60;22.27;;;15.70;99.90;;;;;;6301916;22;20172;-86
2021/06/05 00:51:18;;;;;;;31.23;20.33;;;15.60;99.90;;;;;;6302078;22;20171;-82
2021/06/05 00:53:46;;;;;;;34.63;20.77;;;15.60;99.90;;;;;;6300991;22;20203;-87
2021/06/05 00:56:14;;;;;;;32.27;19.77;;;15.60;99.90;;;;;;6298996;22;20160;-85
2021/06/05 00:58:40;;;;;;;33.20;20.57;;;15.60;99.90;;;;;;6298147;22;20172;-86
2021/06/05 01:01:11;;;;;;;30.30;19.17;;;15.60;99.90;;;;;;6296379;22;20172;-78
2021/06/05 01:03:38;;;;;;;33.23;19.73;;;15.60;99.90;;;;;;6299771;22;20164;-87
2021/06/05 01:06:11;;;;;;;31.97;19.93;;;15.70;99.90;;;;;;6300961;22;20203;-81
2021/06/05 01:08:43;;;;;;;33.17;20.27;;;15.70;99.90;;;;;;6297077;22;20214;-87
2021/06/05 01:11:17;;;;;;;28.60;18.60;;;15.70;99.90;;;;;;6295332;22;20156;-85
2021/06/05 01:13:49;;;;;;;32.73;19.20;;;15.60;99.90;;;;;;6297614;22;20174;-82
2021/06/05 01:16:19;;;;;;;29.57;17.17;;;15.70;99.90;;;;;;6298602;22;20171;-83
2021/06/05 01:18:54;;;;;;;30.60;17.17;;;15.60;99.90;;;;;;6297059;22;20167;-84
2021/06/05 01:21:53;;;;;;;27.43;16.73;;;15.60;99.90;;;;;;6297369;22;20168;-85
2021/06/05 01:24:35;;;;;;;27.97;16.47;;;15.60;99.90;;;;;;6286900;22;20176;-80
2021/06/05 01:27:09;;;;;;;27.43;16.80;;;15.50;99.90;;;;;;6296361;22;20188;-81
2021/06/05 01:29:40;;;;;;;27.63;16.50;;;15.60;99.90;;;;;;6297658;22;20171;-85
2021/06/05 01:32:10;;;;;;;26.97;17.13;;;15.60;99.90;;;;;;6298022;22;20568;-79
2021/06/05 01:34:39;;;;;;;28.07;17.00;;;15.50;99.90;;;;;;6297194;22;20172;-81
2021/06/05 01:37:08;;;;;;;27.63;16.10;;;15.60;99.90;;;;;;6297663;22;20172;-80
2021/06/05 01:39:38;;;;;;;27.60;16.37;;;15.60;99.90;;;;;;6295918;22;20176;-79
2021/06/05 01:42:09;;;;;;;24.80;15.23;;;15.60;99.90;;;;;;6298784;22;20229;-80
2021/06/05 01:44:37;;;;;;;28.93;17.07;;;15.60;99.90;;;;;;6298593;22;20277;-82
2021/06/05 01:47:04;;;;;;;26.63;15.83;;;15.60;99.90;;;;;;6296338;22;20202;-79
2021/06/05 01:49:30;;;;;;;26.77;16.07;;;15.60;99.90;;;;;;6296688;22;20171;-78
2021/06/05 01:52:02;;;;;;;30.80;17.07;;;15.50;99.90;;;;;;6296792;22;20172;-87
2021/06/05 01:54:33;;;;;;;28.93;15.53;;;15.60;99.90;;;;;;6297195;22;20211;-83
2021/06/05 01:57:02;;;;;;;30.83;16.57;;;15.60;99.90;;;;;;6301311;22;20168;-83
2021/06/05 01:59:31;;;;;;;27.27;16.30;;;15.60;99.90;;;;;;6299644;22;20168;-85
2021/06/05 02:01:58;;;;;;;28.30;16.27;;;15.60;99.90;;;;;;6299534;22;20176;-79
2021/06/05 02:04:25;;;;;;;28.03;16.57;;;15.60;99.90;;;;;;6299033;22;20172;-84
2021/06/05 02:06:53;;;;;;;23.93;15.20;;;15.60;99.90;;;;;;6299695;22;20499;-83
2021/06/05 02:09:23;;;;;;;27.63;15.15;;;15.60;99.90;;;;;;6297994;22;20667;-82
2021/06/05 02:11:55;;;;;;;31.07;17.30;;;15.60;99.90;;;;;;6297116;22;20168;-79
2021/06/05 02:14:28;;;;;;;26.03;15.90;;;15.60;99.90;;;;;;6299729;22;20168;-82
2021/06/05 02:16:57;;;;;;;31.70;17.13;;;15.60;99.90;;;;;;6299839;22;20851;-83
2021/06/05 02:19:27;;;;;;;31.63;16.63;;;15.60;99.90;;;;;;6298981;22;20175;-81
2021/06/05 02:21:57;;;;;;;32.37;16.63;;;15.60;99.90;;;;;;6298798;22;20881;-86
2021/06/05 02:24:27;;;;;;;34.30;17.90;;;15.70;99.90;;;;;;6298570;22;20712;-78
2021/06/05 02:26:53;;;;;;;32.47;16.33;;;15.60;99.90;;;;;;6299446;22;20180;-84
2021/06/05 02:29:23;;;;;;;27.20;15.07;;;15.60;99.90;;;;;;6300466;22;20194;-82
2021/06/05 02:31:50;;;;;;;26.10;14.13;;;15.50;99.90;;;;;;6299857;22;20160;-82
2021/06/05 02:34:20;;;;;;;21.10;12.67;;;15.40;99.90;;;;;;6298684;22;20164;-88
2021/06/05 02:36:50;;;;;;;20.73;12.63;;;15.50;99.90;;;;;;6299794;22;20214;-88
2021/06/05 02:39:20;;;;;;;20.37;13.33;;;15.40;99.90;;;;;;6302664;22;20191;-86
2021/06/05 02:41:48;;;;;;;20.07;12.80;;;15.40;99.90;;;;;;6301023;22;20179;-85
2021/06/05 02:44:16;;;;;;;18.50;11.70;;;15.30;99.90;;;;;;6300997;22;20196;-86
2021/06/05 02:46:43;;;;;;;19.00;11.60;;;15.40;99.90;;;;;;6302684;22;20195;-87
2021/06/05 02:49:29;;;;;;;19.60;12.23;;;15.30;99.90;;;;;;6301925;22;20279;-87
2021/06/05 02:52:00;;;;;;;14.83;11.57;;;15.40;99.90;;;;;;6299602;22;20164;-82
2021/06/05 02:54:27;;;;;;;13.60;11.57;;;15.40;99.90;;;;;;6301157;22;20200;-86
2021/06/05 02:56:54;;;;;;;12.77;10.80;;;15.40;99.90;;;;;;6300864;22;20409;-84
2021/06/05 02:59:22;;;;;;;13.43;10.47;;;15.40;99.90;;;;;;6301257;22;20229;-80
2021/06/05 03:01:48;;;;;;;14.17;11.43;;;15.40;99.90;;;;;;6299852;22;20802;-84
2021/06/05 03:04:16;;;;;;;17.97;11.90;;;15.40;99.90;;;;;;6300736;22;20168;-84
2021/06/05 03:06:44;;;;;;;12.77;11.37;;;15.30;99.90;;;;;;6301016;22;20200;-90
2021/06/05 03:09:15;;;;;;;15.20;11.10;;;15.40;99.90;;;;;;6300790;22;20171;-88
2021/06/05 03:11:42;;;;;;;15.47;12.10;;;15.30;99.90;;;;;;6299771;22;20242;-90
2021/06/05 03:14:09;;;;;;;11.47;10.17;;;15.20;99.90;;;;;;6303285;22;20176;-87
2021/06/05 03:16:36;;;;;;;10.90;9.40;;;15.20;99.90;;;;;;6301942;22;20790;-85
2021/06/05 03:19:03;;;;;;;15.07;11.37;;;15.30;99.90;;;;;;6300063;22;20172;-81
2021/06/05 03:21:30;;;;;;;12.67;11.37;;;15.30;99.90;;;;;;6301196;22;20176;-84
2021/06/05 03:23:57;;;;;;;13.70;10.17;;;15.30;99.90;;;;;;6298176;22;20556;-83
2021/06/05 03:26:24;;;;;;;11.97;10.40;;;15.30;99.90;;;;;;6299333;22;20192;-85
2021/06/05 03:28:51;;;;;;;12.27;10.63;;;15.30;99.90;;;;;;6300893;22;20168;-79
2021/06/05 03:31:19;;;;;;;16.03;11.53;;;15.30;99.90;;;;;;6301658;22;20168;-79
2021/06/05 03:33:46;;;;;;;14.07;12.07;;;15.40;99.90;;;;;;6300234;22;20211;-82
2021/06/05 03:36:12;;;;;;;13.13;10.83;;;15.40;99.90;;;;;;6303570;22;20175;-86
2021/06/05 03:38:40;;;;;;;12.23;10.77;;;15.30;99.90;;;;;;6300195;22;20160;-80
2021/06/05 03:41:08;;;;;;;11.80;10.60;;;15.30;99.90;;;;;;6299257;22;20172;-89
2021/06/05 03:43:35;;;;;;;11.10;9.93;;;15.30;99.90;;;;;;6302267;22;20206;-88
2021/06/05 03:46:01;;;;;;;12.67;11.43;;;15.30;99.90;;;;;;6298721;22;20196;-84
2021/06/05 03:48:28;;;;;;;12.60;11.40;;;15.30;99.90;;;;;;6300301;22;20254;-79
2021/06/05 03:50:55;;;;;;;12.37;10.40;;;15.20;99.90;;;;;;6300862;22;20225;-81
2021/06/05 03:53:24;;;;;;;11.57;10.43;;;15.20;99.90;;;;;;6299060;22;20176;-83
2021/06/05 03:55:51;;;;;;;12.00;10.90;;;15.30;99.90;;;;;;6297902;22;20168;-78
2021/06/05 03:58:23;;;;;;;12.23;11.10;;;15.30;99.90;;;;;;6294833;22;20172;-79
2021/06/05 04:00:50;;;;;;;11.67;9.57;;;15.30;99.90;;;;;;6295073;22;20837;-83
2021/06/05 04:03:16;;;;;;;10.23;9.13;;;15.30;99.90;;;;;;6296364;22;20522;-79
2021/06/05 04:05:43;;;;;;;10.43;9.43;;;15.30;99.90;;;;;;6296758;22;20179;-79
2021/06/05 04:08:10;;;;;;;11.30;10.20;;;15.30;99.90;;;;;;6295989;22;20171;-77
2021/06/05 04:10:37;;;;;;;10.60;9.57;;;15.40;99.90;;;;;;6296787;22;20179;-78
2021/06/05 04:13:04;;;;;;;11.00;9.97;;;15.40;99.90;;;;;;6296510;22;20176;-78
2021/06/05 04:15:34;;;;;;;11.07;9.90;;;15.40;99.90;;;;;;6295351;22;20631;-78
2021/06/05 04:18:03;;;;;;;11.07;9.97;;;15.40;99.90;;;;;;6296201;22;20176;-77
2021/06/05 04:20:30;;;;;;;9.77;8.77;;;15.40;99.90;;;;;;6296663;22;20176;-78
2021/06/05 04:22:57;;;;;;;11.70;9.97;;;15.40;99.90;;;;;;6296260;22;20164;-83
2021/06/05 04:25:23;;;;;;;12.93;10.07;;;15.40;99.90;;;;;;6297693;22;20206;-81
2021/06/05 04:27:50;;;;;;;12.07;10.37;;;15.40;99.90;;;;;;6296361;22;20262;-79
2021/06/05 04:30:17;;;;;;;13.27;10.10;;;15.40;99.90;;;;;;6299128;22;20187;-79
2021/06/05 04:32:45;;;;;;;11.87;10.10;;;15.30;99.90;;;;;;6297922;22;20179;-81
2021/06/05 04:35:12;;;;;;;11.30;10.17;;;15.30;99.90;;;;;;6296530;22;20168;-78
2021/06/05 04:37:39;;;;;;;11.13;9.37;;;15.30;99.90;;;;;;6297977;22;20220;-87
2021/06/05 04:40:06;;;;;;;9.50;8.33;;;15.30;99.90;;;;;;6297597;22;20183;-79
2021/06/05 04:42:33;;;;;;;10.93;8.50;;;15.40;99.90;;;;;;6298222;22;20176;-79
2021/06/05 04:44:59;;;;;;;8.43;7.63;;;15.40;99.90;;;;;;6299114;22;20192;-82
2021/06/05 04:47:25;;;;;;;8.40;7.60;;;15.40;99.90;;;;;;6297383;22;20197;-79
2021/06/05 04:49:53;;;;;;;10.50;8.53;;;15.30;99.90;;;;;;6297295;22;20180;-86
2021/06/05 04:52:19;;;;;;;9.77;8.73;;;15.30;99.90;;;;;;6298570;22;20197;-89
2021/06/05 04:54:46;;;;;;;9.90;8.93;;;15.30;99.90;;;;;;6297141;22;20210;-86
2021/06/05 04:57:12;;;;;;;12.93;10.07;;;15.30;99.90;;;;;;6296480;22;20819;-81
2021/06/05 04:59:39;;;;;;;10.47;9.57;;;15.20;99.90;;;;;;6298745;22;20172;-78
2021/06/05 05:02:05;;;;;;;11.03;10.03;;;15.20;99.90;;;;;;6296482;22;20164;-79
2021/06/05 05:04:31;;;;;;;13.70;11.43;;;15.20;99.90;;;;;;6296926;22;20504;-85
2021/06/05 05:06:59;;;;;;;11.67;10.47;;;15.20;99.90;;;;;;6297581;22;20523;-79
2021/06/05 05:09:26;;;;;;;12.23;11.03;;;15.20;99.90;;;;;;6297621;22;20722;-77
2021/06/05 05:11:52;;;;;;;12.83;11.63;;;15.10;99.90;;;;;;6297438;22;20176;-78
2021/06/05 05:14:19;;;;;;;14.77;13.30;;;15.20;99.90;;;;;;6297420;22;20525;-77
2021/06/05 05:16:46;;;;;;;13.93;12.57;;;15.20;99.90;;;;;;6298665;22;20244;-88
2021/06/05 05:19:12;;;;;;;15.60;14.03;;;15.20;99.90;;;;;;6297034;22;20502;-80
2021/06/05 05:21:39;;;;;;;16.27;14.87;;;15.20;99.90;;;;;;6298131;22;20172;-78
2021/06/05 05:24:08;;;;;;;16.33;14.77;;;15.20;99.90;;;;;;6297900;22;20537;-78
2021/06/05 05:26:34;;;;;;;16.83;15.23;;;15.20;99.90;;;;;;6299527;22;20191;-78
2021/06/05 05:29:00;;;;;;;17.27;15.57;;;15.10;99.90;;;;;;6297366;22;20172;-81
2021/06/05 05:31:28;;;;;;;16.17;14.53;;;15.20;99.90;;;;;;6297261;22;20172;-81
2021/06/05 05:33:56;;;;;;;21.27;19.00;;;15.20;99.90;;;;;;6297817;22;20176;-80
2021/06/05 05:36:25;;;;;;;21.00;18.13;;;15.20;99.90;;;;;;6298564;22;20178;-85
2021/06/05 05:38:52;;;;;;;19.63;17.63;;;15.20;99.90;;;;;;6299698;22;20199;-81
2021/06/05 05:41:22;;;;;;;20.93;19.00;;;15.20;99.90;;;;;;6300513;22;20213;-79
2021/06/05 05:43:49;;;;;;;19.67;17.73;;;15.20;99.90;;;;;;6298101;22;20195;-77
2021/06/05 05:46:15;;;;;;;21.30;19.30;;;15.20;99.90;;;;;;6297934;22;20203;-80
2021/06/05 05:48:42;;;;;;;20.53;18.63;;;15.20;99.90;;;;;;6299361;22;20577;-84
2021/06/05 05:51:12;;;;;;;21.50;19.33;;;15.30;99.90;;;;;;6298748;22;20171;-80
2021/06/05 05:53:40;;;;;;;21.70;19.57;;;15.30;99.90;;;;;;6297543;22;20199;-85
2021/06/05 05:56:08;;;;;;;21.30;19.00;;;15.30;99.90;;;;;;6297597;22;20233;-88
2021/06/05 05:58:38;;;;;;;22.73;20.53;;;15.20;99.90;;;;;;6298573;22;20179;-79
2021/06/05 06:01:06;;;;;;;18.60;16.80;;;15.30;99.90;;;;;;6297333;22;20218;-79
2021/06/05 06:03:32;;;;;;;19.20;17.27;;;15.20;99.90;;;;;;6298794;22;20179;-79
2021/06/05 06:05:59;;;;;;;20.27;17.83;;;15.30;99.90;;;;;;6297093;22;20206;-86
2021/06/05 06:08:25;;;;;;;19.17;17.27;;;15.30;99.90;;;;;;6296971;22;20236;-85
2021/06/05 06:10:52;;;;;;;18.47;16.53;;;15.20;99.90;;;;;;6297202;22;20187;-79
2021/06/05 06:13:19;;;;;;;20.20;18.20;;;15.30;99.90;;;;;;6295245;22;20187;-77
2021/06/05 06:15:48;;;;;;;19.97;17.83;;;15.30;99.90;;;;;;6297305;22;20175;-79
2021/06/05 06:18:16;;;;;;;20.57;18.63;;;15.20;99.90;;;;;;6297942;22;20176;-83
2021/06/05 06:20:44;;;;;;;19.30;17.20;;;15.20;99.90;;;;;;6296788;22;20206;-84
2021/06/05 06:23:11;;;;;;;19.47;17.53;;;15.20;99.90;;;;;;6299169;22;20176;-78
2021/06/05 06:25:40;;;;;;;19.77;17.47;;;15.20;99.90;;;;;;6300005;22;20176;-81
2021/06/05 06:28:08;;;;;;;17.00;15.20;;;15.20;99.90;;;;;;6298966;22;20202;-80
2021/06/05 06:30:36;;;;;;;21.20;17.90;;;15.10;99.90;;;;;;6299775;22;20172;-80
2021/06/05 06:33:06;;;;;;;20.40;18.20;;;15.20;99.90;;;;;;6302247;22;20179;-83
2021/06/05 06:35:33;;;;;;;23.23;20.73;;;15.20;99.90;;;;;;6301626;22;20175;-89
2021/06/05 06:38:00;;;;;;;25.33;22.27;;;15.20;99.90;;;;;;6303265;22;20164;-83
2021/06/05 06:40:31;;;;;;;24.47;21.83;;;15.20;99.90;;;;;;6303337;22;20168;-86
2021/06/05 06:42:57;;;;;;;23.23;20.00;;;15.20;99.90;;;;;;6302946;22;20875;-91
2021/06/05 06:45:24;;;;;;;25.70;21.40;;;15.20;99.90;;;;;;6302810;22;20278;-84
2021/06/05 06:47:51;;;;;;;23.37;20.77;;;15.20;99.90;;;;;;6301740;22;20191;-81
2021/06/05 06:50:23;;;;;;;22.10;19.70;;;15.20;99.90;;;;;;6299550;22;20799;-78
2021/06/05 06:52:50;;;;;;;25.37;21.20;;;15.20;99.90;;;;;;6301682;22;20175;-91
2021/06/05 06:55:19;;;;;;;25.60;20.30;;;15.20;99.90;;;;;;6302917;22;20235;-79
2021/06/05 06:57:45;;;;;;;25.43;20.63;;;15.20;99.90;;;;;;6303421;22;20169;-84
2021/06/05 07:00:51;;;;;;;24.37;20.07;;;15.20;99.90;;;;;;6257805;22;20514;-77
2021/06/05 07:03:18;;;;;;;30.73;21.63;;;15.20;99.90;;;;;;6299844;22;20754;-90
2021/06/05 07:05:46;;;;;;;25.97;20.93;;;15.20;99.90;;;;;;6304741;22;20176;-86
2021/06/05 07:08:17;;;;;;;28.73;21.13;;;15.30;99.90;;;;;;6303781;22;20211;-89
2021/06/05 07:10:45;;;;;;;29.53;21.03;;;15.30;99.90;;;;;;6298052;22;20251;-78
2021/06/05 07:13:12;;;;;;;28.67;20.67;;;15.30;99.90;;;;;;6296942;22;20168;-78
2021/06/05 07:15:39;;;;;;;28.47;20.93;;;15.30;99.90;;;;;;6301623;22;20175;-91
2021/06/05 07:18:09;;;;;;;25.63;18.73;;;15.40;99.90;;;;;;6294170;22;20218;-89
2021/06/05 07:20:36;;;;;;;30.90;21.63;;;15.40;99.90;;;;;;6301291;22;20545;-80
2021/06/05 07:23:04;;;;;;;30.07;21.40;;;15.40;99.90;;;;;;6301709;22;20167;-85
2021/06/05 07:25:31;;;;;;;31.37;21.00;;;15.40;99.90;;;;;;6300141;22;20828;-91
2021/06/05 07:27:58;;;;;;;29.60;21.07;;;15.50;99.90;;;;;;6298129;22;20238;-84
2021/06/05 07:30:25;;;;;;;29.83;19.87;;;15.40;99.90;;;;;;6297575;22;20179;-85
2021/06/05 07:32:52;;;;;;;30.47;19.90;;;15.50;99.90;;;;;;6301303;22;20815;-86
2021/06/05 07:35:19;;;;;;;24.40;18.10;;;15.60;99.90;;;;;;6302860;22;20575;-89
2021/06/05 07:37:45;;;;;;;29.60;19.80;;;15.60;99.90;;;;;;6302380;22;20175;-88
2021/06/05 07:40:14;;;;;;;26.27;18.80;;;15.60;99.90;;;;;;6300667;22;20179;-82
2021/06/05 07:42:40;;;;;;;26.40;18.77;;;15.70;99.90;;;;;;6298642;22;20313;-89
2021/06/05 07:45:09;;;;;;;24.10;18.83;;;15.70;99.90;;;;;;6297282;22;20927;-89
2021/06/05 07:47:35;;;;;;;25.77;18.73;;;15.70;99.90;;;;;;6302626;22;20191;-91
2021/06/05 07:50:02;;;;;;;23.90;18.00;;;15.80;99.90;;;;;;6299854;22;20180;-87
2021/06/05 07:52:29;;;;;;;23.33;16.43;;;15.80;99.90;;;;;;6301419;22;20164;-87
2021/06/05 07:54:55;;;;;;;23.73;14.33;;;15.80;99.90;;;;;;6302142;22;20207;-84
2021/06/05 07:57:24;;;;;;;18.57;14.73;;;15.80;99.90;;;;;;6301151;22;20217;-81
2021/06/05 07:59:50;;;;;;;21.53;14.03;;;15.90;99.90;;;;;;6300936;22;20665;-87
2021/06/05 08:02:18;;;;;;;19.50;14.03;;;15.90;99.90;;;;;;6302906;22;20176;-90
2021/06/05 08:04:44;;;;;;;21.70;15.10;;;15.80;99.90;;;;;;6300847;22;20175;-77
2021/06/05 08:07:11;;;;;;;19.10;14.33;;;15.80;99.90;;;;;;6300371;22;20200;-83
2021/06/05 08:09:37;;;;;;;21.47;14.27;;;15.80;99.90;;;;;;6301509;22;20533;-81
2021/06/05 08:12:05;;;;;;;19.33;13.87;;;15.70;99.90;;;;;;6298973;22;20179;-80
2021/06/05 08:14:33;;;;;;;20.90;14.43;;;15.70;99.90;;;;;;6299116;22;20486;-86
2021/06/05 08:16:59;;;;;;;21.07;14.63;;;15.60;99.90;;;;;;6302419;22;20168;-89
2021/06/05 08:19:26;;;;;;;17.73;12.83;;;15.60;99.90;;;;;;6274625;22;20561;-86
2021/06/05 08:21:53;;;;;;;20.47;13.37;;;15.60;99.90;;;;;;6302705;22;20226;-81
2021/06/05 08:24:20;;;;;;;18.00;13.37;;;15.50;99.90;;;;;;6302569;22;20183;-79
2021/06/05 08:26:48;;;;;;;21.60;15.53;;;15.60;99.90;;;;;;6297321;22;20199;-79
2021/06/05 08:29:14;;;;;;;17.93;14.93;;;15.50;99.90;;;;;;6297346;22;20182;-77
2021/06/05 08:31:42;;;;;;;19.40;14.97;;;15.50;99.90;;;;;;6296958;22;20176;-83
2021/06/05 08:34:08;;;;;;;18.43;14.37;;;15.50;99.90;;;;;;6298325;22;20504;-84
2021/06/05 08:36:35;;;;;;;16.00;14.30;;;15.50;99.90;;;;;;6297651;22;20222;-77
2021/06/05 08:39:03;;;;;;;16.80;14.93;;;15.50;99.90;;;;;;6299053;22;20171;-78
2021/06/05 08:41:35;;;;;;;22.80;15.60;;;15.50;99.90;;;;;;6298300;22;20226;-76
2021/06/05 08:44:06;;;;;;;19.40;17.13;;;15.50;99.90;;;;;;6296720;22;20192;-78
2021/06/05 08:46:35;;;;;;;20.30;17.10;;;15.50;99.90;;;;;;6297838;22;20199;-79
2021/06/05 08:49:06;;;;;;;25.13;18.57;;;15.40;99.90;;;;;;6296590;22;20175;-76
2021/06/05 08:51:50;;;;;;;19.20;16.87;;;15.40;99.90;;;;;;6297295;22;20169;-82
2021/06/05 08:54:27;;;;;;;19.30;15.13;;;15.40;99.90;;;;;;6297703;22;20226;-78
2021/06/05 08:56:53;;;;;;;15.07;13.20;;;15.50;99.90;;;;;;6296810;22;20165;-80
2021/06/05 08:59:22;;;;;;;16.03;13.50;;;15.50;99.90;;;;;;6298227;22;20180;-77
2021/06/05 09:01:49;;;;;;;19.07;13.47;;;15.50;99.90;;;;;;6298416;22;20414;-88
2021/06/05 09:04:19;;;;;;;12.20;10.90;;;15.60;99.90;;;;;;6299340;22;20168;-78
2021/06/05 09:06:51;;;;;;;16.47;11.70;;;15.50;99.90;;;;;;6300118;22;20187;-84
2021/06/05 09:09:23;;;;;;;15.20;11.33;;;15.50;99.90;;;;;;6299711;22;20181;-79
2021/06/05 09:11:50;;;;;;;14.00;12.27;;;15.50;99.90;;;;;;6301252;22;20168;-80
2021/06/05 09:14:17;;;;;;;17.53;13.40;;;15.50;99.90;;;;;;6300904;22;20190;-87
2021/06/05 09:16:47;;;;;;;15.03;13.03;;;15.60;99.90;;;;;;6300592;22;20175;-86
2021/06/05 09:19:20;;;;;;;14.43;12.87;;;15.60;99.90;;;;;;6300909;22;20178;-82
2021/06/05 09:21:49;;;;;;;13.73;12.20;;;15.60;99.90;;;;;;6299849;22;20541;-83
2021/06/05 09:24:26;;;;;;;13.47;12.03;;;15.60;99.90;;;;;;6299193;22;20168;-80
2021/06/05 09:27:06;;;;;;;12.07;10.87;;;15.70;99.90;;;;;;6297604;22;20338;-82
2021/06/05 09:29:43;;;;;;;11.93;10.83;;;15.60;99.90;;;;;;6298472;22;20179;-77
2021/06/05 09:32:12;;;;;;;10.63;9.60;;;15.70;99.90;;;;;;6297803;22;20160;-77
2021/06/05 09:34:45;;;;;;;10.80;9.70;;;15.60;99.90;;;;;;6299101;22;20168;-76
2021/06/05 09:37:31;;;;;;;10.27;9.47;;;15.70;99.90;;;;;;6298244;22;20164;-78
2021/06/05 09:40:22;;;;;;;11.77;10.70;;;15.70;99.90;;;;;;6299251;22;20217;-78
2021/06/05 09:42:52;;;;;;;11.33;10.33;;;15.80;99.90;;;;;;6299134;22;20200;-77
2021/06/05 09:45:23;;;;;;;10.50;9.40;;;15.80;99.90;;;;;;6301031;22;20195;-80
2021/06/05 09:47:50;;;;;;;11.73;10.73;;;15.70;99.90;;;;;;6298944;22;20787;-78
2021/06/05 09:50:23;;;;;;;11.00;9.90;;;15.70;99.90;;;;;;6298625;22;20171;-81
2021/06/05 09:52:50;;;;;;;10.80;9.90;;;15.70;99.90;;;;;;6297190;22;20469;-77
2021/06/05 09:55:34;;;;;;;10.33;9.43;;;15.70;99.90;;;;;;6296519;22;20207;-87
2021/06/05 09:58:02;;;;;;;12.60;11.30;;;15.60;99.90;;;;;;6297387;22;20160;-76
2021/06/05 10:00:32;;;;;;;12.67;11.33;;;15.60;99.90;;;;;;6296349;22;20175;-79
2021/06/05 10:03:25;;;;;;;12.87;11.57;;;15.50;99.90;;;;;;6296928;22;20226;-78
2021/06/05 10:05:53;;;;;;;12.97;11.53;;;15.50;99.90;;;;;;6299368;22;20165;-83
2021/06/05 10:08:35;;;;;;;14.37;12.83;;;15.50;99.90;;;;;;6299219;22;20399;-84
2021/06/05 10:11:09;;;;;;;13.97;12.43;;;15.50;99.90;;;;;;6298202;22;20165;-81
2021/06/05 10:13:39;;;;;;;14.70;13.10;;;15.50;99.90;;;;;;6296190;22;20156;-84
2021/06/05 10:16:10;;;;;;;16.27;14.00;;;15.50;99.90;;;;;;6296912;22;20168;-82
2021/06/05 10:18:41;;;;;;;17.20;14.40;;;15.50;99.90;;;;;;6299281;22;20160;-84
2021/06/05 10:21:18;;;;;;;17.23;15.47;;;15.40;99.90;;;;;;6298124;22;20526;-83
2021/06/05 10:23:48;;;;;;;22.77;17.13;;;15.40;99.90;;;;;;6299616;22;20163;-85
2021/06/05 10:26:24;;;;;;;23.03;17.67;;;15.40;99.90;;;;;;6299778;22;20564;-82
2021/06/05 10:28:56;;;;;;;18.50;15.70;;;15.40;99.90;;;;;;6300172;22;20178;-83
2021/06/05 10:31:23;;;;;;;19.97;15.70;;;15.30;99.90;;;;;;6299670;22;20783;-84
2021/06/05 10:33:54;;;;;;;19.27;16.63;;;15.40;99.90;;;;;;6299326;22;20255;-82
2021/06/05 10:36:27;;;;;;;19.60;15.37;;;15.40;99.90;;;;;;6299511;22;20446;-85
2021/06/05 10:38:58;;;;;;;16.53;14.30;;;15.40;99.90;;;;;;6299664;22;20172;-81
2021/06/05 10:41:27;;;;;;;17.57;14.53;;;15.40;99.90;;;;;;6298879;22;20533;-85
2021/06/05 10:43:54;;;;;;;16.90;14.50;;;15.40;99.90;;;;;;6298358;22;20184;-79
2021/06/05 10:46:28;;;;;;;18.97;15.70;;;15.30;99.90;;;;;;6298096;22;20179;-79
2021/06/05 10:49:05;;;;;;;22.80;16.07;;;15.40;99.90;;;;;;6296028;22;20470;-79
2021/06/05 10:51:35;;;;;;;21.07;15.87;;;15.50;99.90;;;;;;6295957;22;20875;-78
2021/06/05 10:54:06;;;;;;;22.17;16.40;;;15.50;99.90;;;;;;6296838;22;20472;-82
2021/06/05 10:56:38;;;;;;;25.67;18.03;;;15.50;99.90;;;;;;6297795;22;20218;-82
2021/06/05 10:59:07;;;;;;;22.37;17.40;;;15.60;99.90;;;;;;6298654;22;20480;-81
2021/06/05 11:01:54;;;;;;;21.13;16.03;;;15.60;99.90;;;;;;6297638;22;20580;-82
2021/06/05 11:04:39;;;;;;;23.87;16.40;;;15.60;99.90;;;;;;6289914;22;20896;-82
2021/06/05 11:07:31;;;;;;;23.47;16.23;;;15.60;99.90;;;;;;6296356;22;20856;-80
2021/06/05 11:09:59;;;;;;;24.40;16.33;;;15.60;99.90;;;;;;6298844;22;20156;-81
2021/06/05 11:12:51;;;;;;;24.37;16.97;;;15.50;99.90;;;;;;6300479;22;20660;-79
2021/06/05 11:15:54;;;;;;;29.57;19.13;;;15.50;99.90;;;;;;6300662;22;20239;-82
2021/06/05 11:18:33;;;;;;;27.47;19.23;;;15.50;99.90;;;;;;6290127;22;20164;-84
2021/06/05 11:21:23;;;;;;;32.27;19.53;;;15.50;99.90;;;;;;6306732;22;20156;-82
2021/06/05 11:24:19;;;;;;;31.83;20.73;;;15.50;99.90;;;;;;6299620;22;20656;-83
2021/06/05 11:26:49;;;;;;;35.37;21.20;;;15.50;99.90;;;;;;6298690;22;20506;-81
2021/06/05 11:29:54;;;;;;;32.73;20.67;;;15.50;99.90;;;;;;6297286;22;20561;-80
2021/06/05 11:32:47;;;;;;;35.10;21.40;;;15.60;99.90;;;;;;6299451;22;20160;-81
2021/06/05 11:35:34;;;;;;;33.13;22.27;;;15.70;99.90;;;;;;6298781;22;20176;-78
2021/06/05 11:38:04;;;;;;;34.67;20.20;;;15.70;99.90;;;;;;6297815;22;20160;-79
2021/06/05 11:40:58;;;;;;;35.90;21.27;;;15.60;99.90;;;;;;6297407;22;20168;-79
2021/06/05 11:43:52;;;;;;;39.37;22.07;;;15.70;99.90;;;;;;6296933;22;20537;-78
2021/06/05 11:46:50;;;;;;;39.90;22.27;;;15.70;99.90;;;;;;6297806;22;20165;-80
2021/06/05 11:49:56;;;;;;;43.30;22.43;;;15.70;99.90;;;;;;6172471;23;20174;-80
2021/06/05 11:52:39;;;;;;;40.00;21.93;;;15.80;99.90;;;;;;6296813;22;20540;-78
2021/06/05 11:55:27;;;;;;;40.60;21.73;;;15.80;99.90;;;;;;6295370;22;20200;-81
2021/06/05 11:58:04;;;;;;;40.90;21.57;;;15.80;99.90;;;;;;6296135;22;20168;-81
2021/06/05 12:00:33;;;;;;;34.53;21.23;;;15.90;99.90;;;;;;6296389;22;20160;-81
2021/06/05 12:03:02;;;;;;;44.27;22.07;;;16.00;99.90;;;;;;6297464;22;20172;-80
2021/06/05 12:05:33;;;;;;;43.80;23.03;;;15.90;99.90;;;;;;6296607;22;20175;-79
2021/06/05 12:07:59;;;;;;;43.10;22.00;;;15.90;99.90;;;;;;6296437;22;20184;-84
2021/06/05 12:10:35;;;;;;;38.13;20.97;;;15.90;99.90;;;;;;6296616;22;20425;-79
2021/06/05 12:13:05;;;;;;;39.80;20.80;;;15.80;99.90;;;;;;6297630;22;20217;-80
2021/06/05 12:15:36;;;;;;;43.53;20.83;;;15.80;99.90;;;;;;6296975;22;20187;-81
2021/06/05 12:18:05;;;;;;;44.40;22.83;;;15.80;99.90;;;;;;6297385;22;20167;-82
2021/06/05 12:20:38;;;;;;;43.10;21.50;;;15.80;99.90;;;;;;6295832;22;20250;-83
2021/06/05 12:23:18;;;;;;;46.47;23.40;;;15.80;99.90;;;;;;6296748;22;20171;-82
2021/06/05 12:25:45;;;;;;;44.30;22.37;;;15.90;99.90;;;;;;6296883;22;20225;-81
2021/06/05 12:28:15;;;;;;;41.40;23.67;;;15.90;99.90;;;;;;6295118;22;20222;-81
2021/06/05 12:30:43;;;;;;;41.80;22.30;;;15.90;99.90;;;;;;6297390;22;20612;-82
2021/06/05 12:33:11;;;;;;;39.13;20.70;;;16.00;99.90;;;;;;6297611;22;20172;-81
2021/06/05 12:35:40;;;;;;;38.70;21.47;;;16.00;99.90;;;;;;6297971;22;20168;-81
2021/06/05 12:38:09;;;;;;;38.13;20.20;;;16.00;99.90;;;;;;6298422;22;20188;-81
2021/06/05 12:40:40;;;;;;;38.00;20.40;;;16.00;99.90;;;;;;6296624;22;20476;-84
2021/06/05 12:43:09;;;;;;;38.53;19.63;;;15.90;99.90;;;;;;6297326;22;20164;-81
2021/06/05 12:45:37;;;;;;;40.60;20.37;;;15.80;99.90;;;;;;6297110;22;20221;-79